Аэропорт: Псков. Псков

ICAO: ULOO

METAR:
2020-08-13 11:30:00
ULOO 131130Z VRB01MPS 9999 FEW036CB 16/09 Q1019 R19/090070 NOSIG RMK QFE760
METAR:
2020-08-13 10:56:00
TAF ULOO 131056Z 1312/1321 12002MPS 9999 BKN030 TEMPO 1312/1318 VRB01MPS -SHRA BKN018 BKN030CB TEMPO 1318/1321 VRB01MPS 3100 BR